Aviation Digital Data Service (ADDS)

Output produced by METARs form (2155 UTC 19 February 2018)
found at http://www.aviationweather.gov/adds/metars/
 
FBFT 191900Z 14005KT 9999 FEW020 FEW030CB BKN065 23/21 Q1016
TAF FBFT 192100Z 2000/2009 09007KT 9999 BKN014 FEW035CB 
     PROB30 
     TEMPO 2000/2006 TSRA
       
FBKE 191800Z 10004KT 9999 FEW030CB BKN065 21/21 Q1015
TAF FBKE 191200Z 1915/1924 VRB03KT 9999 FEW035CB BKN065 
     TEMPO 1915/1924 4000 TSRA
       
FBMN 191800Z 03006KT 9999 FEW035CB BKN070 24/20 Q1013
TAF FBMN 192100Z 2000/2009 04005KT 9999 BKN014 FEW035CB 
     PROB30 
     TEMPO 2000/2006 TSRA
       
FBSP 191800Z 00000KT 9999 -RA FEW035CB BKN070 25/22 Q1015
TAF FBSP 191200Z 1915/1924 09006KT 9999 FEW035CB BKN065 
     TEMPO 1915/1921 4000 TSRA 
     BECMG 1922/1924 CAVOK
       
FBSK 192100Z 07004KT CAVOK 23/18 Q1017 NOSIG
TAF FBSK 192100Z 2000/2106 05006KT CAVOK 
     BECMG 2004/2006 BKN014 
     BECMG 2012/2014 SCT025 FEW035CB 
     PROB30 
     TEMPO 2015/2024 TSRA
       
FBFT 191900Z 14005KT 9999 FEW020 FEW030CB BKN065 23/21 Q1016
TAF FBFT 192100Z 2000/2009 09007KT 9999 BKN014 FEW035CB 
     PROB30 
     TEMPO 2000/2006 TSRA